sensor_id;sensor_type;location;lat;lon;timestamp;pressure;altitude;pressure_sealevel;temperature;humidity
44934;BME280;30667;43.614;1.442;2023-04-07T00:00:17;100243.06;;;11.03;91.95
44934;BME280;30667;43.614;1.442;2023-04-07T00:02:43;100241.44;;;11.02;92.63
44934;BME280;30667;43.614;1.442;2023-04-07T00:05:08;100243.09;;;10.98;92.21
44934;BME280;30667;43.614;1.442;2023-04-07T00:07:34;100236.88;;;10.92;92.91
44934;BME280;30667;43.614;1.442;2023-04-07T00:09:59;100241.75;;;10.90;93.15
44934;BME280;30667;43.614;1.442;2023-04-07T00:12:25;100239.31;;;10.88;95.07
44934;BME280;30667;43.614;1.442;2023-04-07T00:14:50;100230.94;;;10.90;93.37
44934;BME280;30667;43.614;1.442;2023-04-07T00:17:16;100232.28;;;10.87;93.48
44934;BME280;30667;43.614;1.442;2023-04-07T00:19:41;100239.59;;;10.82;94.15
44934;BME280;30667;43.614;1.442;2023-04-07T00:22:07;100235.53;;;10.79;94.53
44934;BME280;30667;43.614;1.442;2023-04-07T00:24:33;100240.97;;;10.79;94.38
44934;BME280;30667;43.614;1.442;2023-04-07T00:26:58;100246.91;;;10.76;94.70
44934;BME280;30667;43.614;1.442;2023-04-07T00:29:24;100242.03;;;10.78;95.16
44934;BME280;30667;43.614;1.442;2023-04-07T00:31:49;100243.94;;;10.72;94.20
44934;BME280;30667;43.614;1.442;2023-04-07T00:34:14;100230.69;;;10.76;93.58
44934;BME280;30667;43.614;1.442;2023-04-07T00:36:40;100222.84;;;10.69;95.49
44934;BME280;30667;43.614;1.442;2023-04-07T00:39:05;100232.84;;;10.69;95.79
44934;BME280;30667;43.614;1.442;2023-04-07T00:41:33;100230.41;;;10.62;95.56
44934;BME280;30667;43.614;1.442;2023-04-07T00:43:58;100228.53;;;10.63;95.98
44934;BME280;30667;43.614;1.442;2023-04-07T00:46:24;100224.75;;;10.59;95.11
44934;BME280;30667;43.614;1.442;2023-04-07T00:48:50;100211.75;;;10.66;95.79
44934;BME280;30667;43.614;1.442;2023-04-07T00:51:15;100206.91;;;10.63;94.51
44934;BME280;30667;43.614;1.442;2023-04-07T00:53:41;100205.53;;;10.60;94.47
44934;BME280;30667;43.614;1.442;2023-04-07T00:56:07;100206.06;;;10.62;94.31
44934;BME280;30667;43.614;1.442;2023-04-07T00:58:32;100194.97;;;10.59;94.18
44934;BME280;30667;43.614;1.442;2023-04-07T01:01:07;100204.19;;;10.58;94.62
44934;BME280;30667;43.614;1.442;2023-04-07T01:06:09;100204.47;;;10.51;95.22
44934;BME280;30667;43.614;1.442;2023-04-07T01:08:46;100196.34;;;10.51;94.76
44934;BME280;30667;43.614;1.442;2023-04-07T01:14:04;100189.03;;;10.46;95.19
44934;BME280;30667;43.614;1.442;2023-04-07T01:16:34;100187.97;;;10.42;96.13
44934;BME280;30667;43.614;1.442;2023-04-07T01:19:15;100173.91;;;10.35;96.09
44934;BME280;30667;43.614;1.442;2023-04-07T01:21:43;100183.63;;;10.31;94.79
44934;BME280;30667;43.614;1.442;2023-04-07T01:26:34;100172.03;;;10.35;95.67
44934;BME280;30667;43.614;1.442;2023-04-07T01:29:29;100176.63;;;10.35;94.86
44934;BME280;30667;43.614;1.442;2023-04-07T01:31:59;100181.72;;;10.31;95.23
44934;BME280;30667;43.614;1.442;2023-04-07T01:34:26;100179.03;;;10.31;94.76
44934;BME280;30667;43.614;1.442;2023-04-07T01:36:54;100176.03;;;10.23;94.90
44934;BME280;30667;43.614;1.442;2023-04-07T01:39:22;100174.44;;;10.16;95.28
44934;BME280;30667;43.614;1.442;2023-04-07T01:41:49;100176.59;;;10.14;95.94
44934;BME280;30667;43.614;1.442;2023-04-07T01:44:18;100178.75;;;10.12;96.44
44934;BME280;30667;43.614;1.442;2023-04-07T01:46:44;100175.53;;;10.10;96.68
44934;BME280;30667;43.614;1.442;2023-04-07T01:49:10;100168.22;;;10.11;97.29
44934;BME280;30667;43.614;1.442;2023-04-07T01:51:37;100176.06;;;10.07;95.86
44934;BME280;30667;43.614;1.442;2023-04-07T01:54:03;100165.78;;;10.09;97.62
44934;BME280;30667;43.614;1.442;2023-04-07T01:56:29;100161.19;;;10.10;96.62
44934;BME280;30667;43.614;1.442;2023-04-07T01:58:54;100165.25;;;10.02;97.51
44934;BME280;30667;43.614;1.442;2023-04-07T02:01:20;100163.38;;;9.97;97.63
44934;BME280;30667;43.614;1.442;2023-04-07T02:03:46;100164.44;;;9.96;98.15
44934;BME280;30667;43.614;1.442;2023-04-07T02:06:18;100164.69;;;9.95;97.23
44934;BME280;30667;43.614;1.442;2023-04-07T02:08:50;100155.25;;;9.97;97.27
44934;BME280;30667;43.614;1.442;2023-04-07T02:11:19;100155.53;;;9.96;97.80
44934;BME280;30667;43.614;1.442;2023-04-07T02:13:46;100155.22;;;9.92;97.01
44934;BME280;30667;43.614;1.442;2023-04-07T02:16:12;100147.41;;;9.80;97.51
44934;BME280;30667;43.614;1.442;2023-04-07T02:18:39;100150.91;;;9.81;98.39
44934;BME280;30667;43.614;1.442;2023-04-07T02:21:06;100153.91;;;9.85;98.71
44934;BME280;30667;43.614;1.442;2023-04-07T02:23:36;100152.28;;;9.78;99.01
44934;BME280;30667;43.614;1.442;2023-04-07T02:26:01;100157.41;;;9.75;99.89
44934;BME280;30667;43.614;1.442;2023-04-07T02:28:27;100151.16;;;9.74;99.71
44934;BME280;30667;43.614;1.442;2023-04-07T02:30:52;100146.56;;;9.70;100.00
44934;BME280;30667;43.614;1.442;2023-04-07T02:33:17;100143.59;;;9.71;100.00
44934;BME280;30667;43.614;1.442;2023-04-07T02:35:43;100150.63;;;9.67;99.80
44934;BME280;30667;43.614;1.442;2023-04-07T02:38:08;100146.84;;;9.68;100.00
44934;BME280;30667;43.614;1.442;2023-04-07T02:40:34;100151.44;;;9.62;100.00
44934;BME280;30667;43.614;1.442;2023-04-07T02:43:00;100147.91;;;9.62;100.00
44934;BME280;30667;43.614;1.442;2023-04-07T02:45:26;100149.81;;;9.67;100.00
44934;BME280;30667;43.614;1.442;2023-04-07T02:47:51;100145.19;;;9.52;100.00
44934;BME280;30667;43.614;1.442;2023-04-07T02:50:17;100139.53;;;9.48;100.00
44934;BME280;30667;43.614;1.442;2023-04-07T02:52:42;100146.00;;;9.42;100.00
44934;BME280;30667;43.614;1.442;2023-04-07T02:55:08;100141.66;;;9.41;100.00
44934;BME280;30667;43.614;1.442;2023-04-07T02:57:33;100139.78;;;9.41;100.00
44934;BME280;30667;43.614;1.442;2023-04-07T02:59:59;100141.41;;;9.48;100.00
44934;BME280;30667;43.614;1.442;2023-04-07T03:02:24;100140.59;;;9.47;100.00
44934;BME280;30667;43.614;1.442;2023-04-07T03:04:51;100137.88;;;9.37;100.00
44934;BME280;30667;43.614;1.442;2023-04-07T03:07:17;100138.16;;;9.40;100.00
44934;BME280;30667;43.614;1.442;2023-04-07T03:09:42;100135.44;;;9.35;100.00
44934;BME280;30667;43.614;1.442;2023-04-07T03:12:08;100141.66;;;9.31;100.00
44934;BME280;30667;43.614;1.442;2023-04-07T03:14:33;100138.63;;;9.22;100.00
44934;BME280;30667;43.614;1.442;2023-04-07T03:16:59;100129.72;;;9.16;100.00
44934;BME280;30667;43.614;1.442;2023-04-07T03:19:24;100127.00;;;9.11;100.00
44934;BME280;30667;43.614;1.442;2023-04-07T03:21:50;100128.63;;;9.17;100.00
44934;BME280;30667;43.614;1.442;2023-04-07T03:24:15;100132.44;;;9.16;100.00
44934;BME280;30667;43.614;1.442;2023-04-07T03:26:40;100123.47;;;9.11;100.00
44934;BME280;30667;43.614;1.442;2023-04-07T03:29:06;100126.44;;;8.99;100.00
44934;BME280;30667;43.614;1.442;2023-04-07T03:31:31;100122.94;;;9.03;100.00
44934;BME280;30667;43.614;1.442;2023-04-07T03:33:57;100119.41;;;8.98;100.00
44934;BME280;30667;43.614;1.442;2023-04-07T03:36:22;100123.41;;;8.85;100.00
44934;BME280;30667;43.614;1.442;2023-04-07T03:38:48;100116.41;;;8.94;100.00
44934;BME280;30667;43.614;1.442;2023-04-07T03:41:14;100114.50;;;8.84;100.00
44934;BME280;30667;43.614;1.442;2023-04-07T03:43:40;100108.81;;;8.81;100.00
44934;BME280;30667;43.614;1.442;2023-04-07T03:46:06;100105.28;;;8.80;100.00
44934;BME280;30667;43.614;1.442;2023-04-07T03:48:31;100111.53;;;8.81;100.00
44934;BME280;30667;43.614;1.442;2023-04-07T03:50:58;100105.88;;;8.82;100.00
44934;BME280;30667;43.614;1.442;2023-04-07T03:53:23;100106.38;;;8.79;100.00
44934;BME280;30667;43.614;1.442;2023-04-07T03:55:49;100109.31;;;8.72;100.00
44934;BME280;30667;43.614;1.442;2023-04-07T03:58:16;100106.09;;;8.76;100.00
44934;BME280;30667;43.614;1.442;2023-04-07T04:00:41;100104.16;;;8.71;100.00
44934;BME280;30667;43.614;1.442;2023-04-07T04:03:07;100100.13;;;8.68;100.00
44934;BME280;30667;43.614;1.442;2023-04-07T04:05:32;100102.03;;;8.73;100.00
44934;BME280;30667;43.614;1.442;2023-04-07T04:07:58;100097.72;;;8.77;100.00
44934;BME280;30667;43.614;1.442;2023-04-07T04:10:23;100103.91;;;8.72;100.00
44934;BME280;30667;43.614;1.442;2023-04-07T04:12:49;100094.75;;;8.68;100.00
44934;BME280;30667;43.614;1.442;2023-04-07T04:15:15;100095.75;;;8.57;100.00
44934;BME280;30667;43.614;1.442;2023-04-07T04:17:40;100093.06;;;8.57;100.00
44934;BME280;30667;43.614;1.442;2023-04-07T04:20:06;100090.38;;;8.62;100.00
44934;BME280;30667;43.614;1.442;2023-04-07T04:22:32;100099.53;;;8.61;100.00
44934;BME280;30667;43.614;1.442;2023-04-07T04:24:58;100096.03;;;8.61;100.00
44934;BME280;30667;43.614;1.442;2023-04-07T04:27:24;100087.94;;;8.56;100.00
44934;BME280;30667;43.614;1.442;2023-04-07T04:29:49;100087.16;;;8.60;100.00
44934;BME280;30667;43.614;1.442;2023-04-07T04:32:14;100083.88;;;8.58;100.00
44934;BME280;30667;43.614;1.442;2023-04-07T04:34:42;100083.34;;;8.56;100.00
44934;BME280;30667;43.614;1.442;2023-04-07T04:37:08;100094.13;;;8.51;100.00
44934;BME280;30667;43.614;1.442;2023-04-07T04:39:34;100086.03;;;8.51;100.00
44934;BME280;30667;43.614;1.442;2023-04-07T04:41:59;100091.69;;;8.49;100.00
44934;BME280;30667;43.614;1.442;2023-04-07T04:44:25;100088.63;;;8.41;100.00
44934;BME280;30667;43.614;1.442;2023-04-07T04:46:50;100092.91;;;8.31;100.00
44934;BME280;30667;43.614;1.442;2023-04-07T04:49:16;100093.47;;;8.39;100.00
44934;BME280;30667;43.614;1.442;2023-04-07T04:51:43;100093.69;;;8.32;100.00
44934;BME280;30667;43.614;1.442;2023-04-07T04:54:09;100089.06;;;8.22;100.00
44934;BME280;30667;43.614;1.442;2023-04-07T04:56:34;100086.38;;;8.22;100.00
44934;BME280;30667;43.614;1.442;2023-04-07T04:58:59;100084.16;;;8.14;100.00
44934;BME280;30667;43.614;1.442;2023-04-07T05:01:25;100089.03;;;8.17;100.00
44934;BME280;30667;43.614;1.442;2023-04-07T05:03:50;100089.81;;;8.12;100.00
44934;BME280;30667;43.614;1.442;2023-04-07T05:06:16;100095.69;;;8.04;100.00
44934;BME280;30667;43.614;1.442;2023-04-07T05:08:41;100101.28;;;7.97;100.00
44934;BME280;30667;43.614;1.442;2023-04-07T05:11:06;100104.88;;;8.08;100.00
44934;BME280;30667;43.614;1.442;2023-04-07T05:13:32;100097.59;;;8.09;100.00
44934;BME280;30667;43.614;1.442;2023-04-07T05:15:58;100108.38;;;8.09;100.00
44934;BME280;30667;43.614;1.442;2023-04-07T05:18:23;100107.75;;;7.96;100.00
44934;BME280;30667;43.614;1.442;2023-04-07T05:20:49;100112.56;;;7.94;100.00
44934;BME280;30667;43.614;1.442;2023-04-07T05:23:14;100118.28;;;7.98;100.00
44934;BME280;30667;43.614;1.442;2023-04-07T05:25:40;100122.03;;;7.97;100.00
44934;BME280;30667;43.614;1.442;2023-04-07T05:28:06;100121.16;;;7.91;100.00
44934;BME280;30667;43.614;1.442;2023-04-07T05:30:31;100128.78;;;7.99;100.00
44934;BME280;30667;43.614;1.442;2023-04-07T05:32:56;100131.56;;;8.10;100.00
44934;BME280;30667;43.614;1.442;2023-04-07T05:35:22;100135.03;;;8.05;100.00
44934;BME280;30667;43.614;1.442;2023-04-07T05:37:48;100134.72;;;8.02;100.00
44934;BME280;30667;43.614;1.442;2023-04-07T05:40:13;100137.97;;;8.04;100.00
44934;BME280;30667;43.614;1.442;2023-04-07T05:42:39;100145.50;;;8.02;100.00
44934;BME280;30667;43.614;1.442;2023-04-07T05:45:05;100140.66;;;8.04;100.00
44934;BME280;30667;43.614;1.442;2023-04-07T05:47:31;100139.81;;;7.98;100.00
44934;BME280;30667;43.614;1.442;2023-04-07T05:49:56;100137.69;;;8.00;100.00
44934;BME280;30667;43.614;1.442;2023-04-07T05:52:22;100142.56;;;8.03;100.00
44934;BME280;30667;43.614;1.442;2023-04-07T05:54:47;100144.72;;;8.01;100.00
44934;BME280;30667;43.614;1.442;2023-04-07T05:57:13;100145.97;;;7.93;100.00
44934;BME280;30667;43.614;1.442;2023-04-07T05:59:38;100147.97;;;8.08;100.00
44934;BME280;30667;43.614;1.442;2023-04-07T06:02:04;100145.13;;;8.20;100.00
44934;BME280;30667;43.614;1.442;2023-04-07T06:04:29;100153.47;;;8.18;100.00
44934;BME280;30667;43.614;1.442;2023-04-07T06:06:55;100145.53;;;8.07;100.00
44934;BME280;30667;43.614;1.442;2023-04-07T06:09:21;100148.25;;;8.07;100.00
44934;BME280;30667;43.614;1.442;2023-04-07T06:11:46;100154.25;;;8.14;100.00
44934;BME280;30667;43.614;1.442;2023-04-07T06:14:12;100162.66;;;8.23;100.00
44934;BME280;30667;43.614;1.442;2023-04-07T06:16:37;100154.25;;;8.57;100.00
44934;BME280;30667;43.614;1.442;2023-04-07T06:19:03;100155.72;;;8.37;100.00
44934;BME280;30667;43.614;1.442;2023-04-07T06:21:28;100164.94;;;8.41;100.00
44934;BME280;30667;43.614;1.442;2023-04-07T06:23:54;100165.16;;;8.34;100.00
44934;BME280;30667;43.614;1.442;2023-04-07T06:26:20;100162.72;;;8.33;100.00
44934;BME280;30667;43.614;1.442;2023-04-07T06:28:46;100165.63;;;8.26;100.00
44934;BME280;30667;43.614;1.442;2023-04-07T06:31:11;100167.00;;;8.29;100.00
44934;BME280;30667;43.614;1.442;2023-04-07T06:33:37;100169.75;;;8.39;100.00
44934;BME280;30667;43.614;1.442;2023-04-07T06:36:02;100170.03;;;8.37;100.00
44934;BME280;30667;43.614;1.442;2023-04-07T06:38:28;100175.16;;;8.39;100.00
44934;BME280;30667;43.614;1.442;2023-04-07T06:40:53;100177.59;;;8.41;100.00
44934;BME280;30667;43.614;1.442;2023-04-07T06:43:18;100172.56;;;8.49;100.00
44934;BME280;30667;43.614;1.442;2023-04-07T06:45:44;100176.66;;;8.57;100.00
44934;BME280;30667;43.614;1.442;2023-04-07T06:48:09;100175.13;;;8.66;100.00
44934;BME280;30667;43.614;1.442;2023-04-07T06:50:35;100176.47;;;8.69;100.00
44934;BME280;30667;43.614;1.442;2023-04-07T06:53:02;100182.13;;;8.67;100.00
44934;BME280;30667;43.614;1.442;2023-04-07T06:55:27;100182.41;;;8.71;100.00
44934;BME280;30667;43.614;1.442;2023-04-07T06:57:53;100188.94;;;8.80;100.00
44934;BME280;30667;43.614;1.442;2023-04-07T07:00:18;100189.22;;;8.84;100.00
44934;BME280;30667;43.614;1.442;2023-04-07T07:02:43;100185.44;;;8.85;100.00
44934;BME280;30667;43.614;1.442;2023-04-07T07:05:09;100187.38;;;8.95;100.00
44934;BME280;30667;43.614;1.442;2023-04-07T07:07:36;100186.56;;;8.89;100.00
44934;BME280;30667;43.614;1.442;2023-04-07T07:10:01;100187.88;;;8.86;100.00
44934;BME280;30667;43.614;1.442;2023-04-07T07:12:27;100187.38;;;8.89;100.00
44934;BME280;30667;43.614;1.442;2023-04-07T07:14:52;100190.84;;;8.85;100.00
44934;BME280;30667;43.614;1.442;2023-04-07T07:17:18;100195.19;;;8.91;100.00
44934;BME280;30667;43.614;1.442;2023-04-07T07:19:43;100187.41;;;9.00;100.00
44934;BME280;30667;43.614;1.442;2023-04-07T07:22:08;100191.50;;;9.07;100.00
44934;BME280;30667;43.614;1.442;2023-04-07T07:24:34;100190.66;;;9.02;100.00
44934;BME280;30667;43.614;1.442;2023-04-07T07:27:00;100189.88;;;9.06;100.00
44934;BME280;30667;43.614;1.442;2023-04-07T07:29:26;100189.13;;;9.21;100.00
44934;BME280;30667;43.614;1.442;2023-04-07T07:31:52;100189.63;;;9.13;100.00
44934;BME280;30667;43.614;1.442;2023-04-07T07:34:17;100189.13;;;9.21;100.00
44934;BME280;30667;43.614;1.442;2023-04-07T07:36:42;100195.38;;;9.32;100.00
44934;BME280;30667;43.614;1.442;2023-04-07T07:39:08;100186.44;;;9.32;100.00
44934;BME280;30667;43.614;1.442;2023-04-07T07:41:33;100181.09;;;9.47;100.00
44934;BME280;30667;43.614;1.442;2023-04-07T07:43:59;100188.41;;;9.57;100.00
44934;BME280;30667;43.614;1.442;2023-04-07T07:46:24;100190.84;;;9.58;100.00
44934;BME280;30667;43.614;1.442;2023-04-07T07:48:51;100190.09;;;9.73;100.00
44934;BME280;30667;43.614;1.442;2023-04-07T07:51:17;100192.81;;;9.73;100.00
44934;BME280;30667;43.614;1.442;2023-04-07T07:53:45;100188.72;;;9.76;100.00
44934;BME280;30667;43.614;1.442;2023-04-07T07:56:10;100190.66;;;9.91;100.00
44934;BME280;30667;43.614;1.442;2023-04-07T07:58:36;100187.13;;;9.95;100.00
44934;BME280;30667;43.614;1.442;2023-04-07T08:01:01;100186.06;;;9.96;100.00
44934;BME280;30667;43.614;1.442;2023-04-07T08:03:27;100195.25;;;10.06;100.00
44934;BME280;30667;43.614;1.442;2023-04-07T08:05:52;100190.91;;;10.10;100.00
44934;BME280;30667;43.614;1.442;2023-04-07T08:08:18;100194.19;;;10.17;100.00
44934;BME280;30667;43.614;1.442;2023-04-07T08:10:43;100189.56;;;10.23;100.00
44934;BME280;30667;43.614;1.442;2023-04-07T08:13:09;100196.59;;;10.29;100.00
44934;BME280;30667;43.614;1.442;2023-04-07T08:15:34;100199.34;;;10.34;100.00
44934;BME280;30667;43.614;1.442;2023-04-07T08:18:00;100204.75;;;10.34;100.00
44934;BME280;30667;43.614;1.442;2023-04-07T08:20:29;100201.22;;;10.49;100.00
44934;BME280;30667;43.614;1.442;2023-04-07T08:22:55;100202.00;;;10.65;100.00
44934;BME280;30667;43.614;1.442;2023-04-07T08:25:20;100206.34;;;10.66;100.00
44934;BME280;30667;43.614;1.442;2023-04-07T08:27:45;100209.03;;;10.71;100.00
44934;BME280;30667;43.614;1.442;2023-04-07T08:30:11;100194.97;;;10.64;100.00
44934;BME280;30667;43.614;1.442;2023-04-07T08:32:41;100197.16;;;10.57;100.00
44934;BME280;30667;43.614;1.442;2023-04-07T08:35:08;100208.50;;;10.74;100.00
44934;BME280;30667;43.614;1.442;2023-04-07T08:37:34;100213.59;;;10.86;100.00
44934;BME280;30667;43.614;1.442;2023-04-07T08:40:00;100209.22;;;11.00;100.00
44934;BME280;30667;43.614;1.442;2023-04-07T08:42:29;100207.63;;;10.99;100.00
44934;BME280;30667;43.614;1.442;2023-04-07T08:44:56;100201.66;;;10.97;100.00
44934;BME280;30667;43.614;1.442;2023-04-07T08:47:24;100198.94;;;11.02;100.00
44934;BME280;30667;43.614;1.442;2023-04-07T08:49:52;100202.13;;;11.15;100.00
44934;BME280;30667;43.614;1.442;2023-04-07T08:52:21;100200.97;;;11.31;100.00
44934;BME280;30667;43.614;1.442;2023-04-07T08:54:48;100197.75;;;11.29;100.00
44934;BME280;30667;43.614;1.442;2023-04-07T08:57:15;100203.69;;;11.36;100.00
44934;BME280;30667;43.614;1.442;2023-04-07T08:59:42;100196.88;;;11.39;100.00
44934;BME280;30667;43.614;1.442;2023-04-07T09:02:10;100202.81;;;11.46;100.00
44934;BME280;30667;43.614;1.442;2023-04-07T09:04:35;100201.97;;;11.56;100.00
44934;BME280;30667;43.614;1.442;2023-04-07T09:07:01;100191.13;;;11.56;99.01
44934;BME280;30667;43.614;1.442;2023-04-07T09:09:26;100193.28;;;11.59;98.82
44934;BME280;30667;43.614;1.442;2023-04-07T09:11:52;100196.19;;;11.73;99.93
44934;BME280;30667;43.614;1.442;2023-04-07T09:14:17;100185.81;;;11.80;98.24
44934;BME280;30667;43.614;1.442;2023-04-07T09:16:45;100195.84;;;11.79;98.38
44934;BME280;30667;43.614;1.442;2023-04-07T09:19:11;100192.81;;;11.86;98.88
44934;BME280;30667;43.614;1.442;2023-04-07T09:21:49;100195.75;;;12.00;99.41
44934;BME280;30667;43.614;1.442;2023-04-07T09:24:26;100188.13;;;12.02;99.19
44934;BME280;30667;43.614;1.442;2023-04-07T09:27:14;100172.66;;;12.08;100.00
44934;BME280;30667;43.614;1.442;2023-04-07T09:29:42;100177.16;;;12.17;100.00
44934;BME280;30667;43.614;1.442;2023-04-07T09:32:09;100177.63;;;12.25;98.69
44934;BME280;30667;43.614;1.442;2023-04-07T09:34:36;100164.84;;;12.30;99.43
44934;BME280;30667;43.614;1.442;2023-04-07T09:37:04;100171.13;;;12.26;100.00
44934;BME280;30667;43.614;1.442;2023-04-07T09:39:30;100161.88;;;12.27;100.00
44934;BME280;30667;43.614;1.442;2023-04-07T09:41:56;100164.00;;;12.35;99.92
44934;BME280;30667;43.614;1.442;2023-04-07T09:44:23;100158.06;;;12.57;97.16
44934;BME280;30667;43.614;1.442;2023-04-07T09:46:52;100147.75;;;12.59;97.55
44934;BME280;30667;43.614;1.442;2023-04-07T09:49:19;100155.75;;;12.69;97.70
44934;BME280;30667;43.614;1.442;2023-04-07T09:52:02;100153.09;;;12.88;96.68
44934;BME280;30667;43.614;1.442;2023-04-07T09:54:39;100155.59;;;12.85;96.13
44934;BME280;30667;43.614;1.442;2023-04-07T09:57:10;100151.75;;;12.86;90.58
44934;BME280;30667;43.614;1.442;2023-04-07T09:59:38;100148.72;;;12.93;91.34
44934;BME280;30667;43.614;1.442;2023-04-07T10:02:06;100147.72;;;13.07;92.41
44934;BME280;30667;43.614;1.442;2023-04-07T10:04:31;100145.28;;;13.06;90.23
44934;BME280;30667;43.614;1.442;2023-04-07T10:06:58;100143.19;;;13.22;91.48
44934;BME280;30667;43.614;1.442;2023-04-07T10:09:27;100146.94;;;13.26;86.06
44934;BME280;30667;43.614;1.442;2023-04-07T10:11:54;100149.09;;;13.29;84.96
44934;BME280;30667;43.614;1.442;2023-04-07T10:14:21;100144.91;;;13.37;86.28
44934;BME280;30667;43.614;1.442;2023-04-07T10:16:50;100145.38;;;13.44;88.03
44934;BME280;30667;43.614;1.442;2023-04-07T10:19:18;100139.63;;;13.46;89.33
44934;BME280;30667;43.614;1.442;2023-04-07T10:21:43;100129.72;;;13.55;89.52
44934;BME280;30667;43.614;1.442;2023-04-07T10:26:55;100129.56;;;13.65;88.55
44934;BME280;30667;43.614;1.442;2023-04-07T10:29:23;100120.03;;;13.68;88.15
44934;BME280;30667;43.614;1.442;2023-04-07T10:31:50;100116.75;;;13.85;84.22
44934;BME280;30667;43.614;1.442;2023-04-07T10:34:16;100117.59;;;13.99;86.32
44934;BME280;30667;43.614;1.442;2023-04-07T10:37:08;100108.88;;;13.83;85.45
44934;BME280;30667;43.614;1.442;2023-04-07T10:39:35;100109.72;;;13.84;86.52
44934;BME280;30667;43.614;1.442;2023-04-07T10:42:01;100106.59;;;13.90;85.00
44934;BME280;30667;43.614;1.442;2023-04-07T10:44:46;100101.16;;;14.23;77.88
44934;BME280;30667;43.614;1.442;2023-04-07T10:47:13;100100.44;;;14.31;77.39
44934;BME280;30667;43.614;1.442;2023-04-07T10:49:38;100098.31;;;14.42;73.15
44934;BME280;30667;43.614;1.442;2023-04-07T10:54:35;100089.75;;;14.35;68.30
44934;BME280;30667;43.614;1.442;2023-04-07T10:59:27;100089.38;;;14.56;65.63
44934;BME280;30667;43.614;1.442;2023-04-07T11:04:44;100082.72;;;14.48;66.65
44934;BME280;30667;43.614;1.442;2023-04-07T11:07:12;100083.31;;;14.73;65.43
44934;BME280;30667;43.614;1.442;2023-04-07T11:09:39;100085.75;;;14.74;64.04
44934;BME280;30667;43.614;1.442;2023-04-07T11:12:05;100079.88;;;14.95;61.23
44934;BME280;30667;43.614;1.442;2023-04-07T11:14:31;100077.38;;;14.84;65.74
44934;BME280;30667;43.614;1.442;2023-04-07T11:16:58;100071.13;;;14.70;67.95
44934;BME280;30667;43.614;1.442;2023-04-07T11:19:23;100070.13;;;14.80;66.69
44934;BME280;30667;43.614;1.442;2023-04-07T11:21:49;100074.34;;;14.86;61.86
44934;BME280;30667;43.614;1.442;2023-04-07T11:24:34;100073.25;;;14.73;63.46
44934;BME280;30667;43.614;1.442;2023-04-07T11:27:02;100059.72;;;14.82;63.01
44934;BME280;30667;43.614;1.442;2023-04-07T11:29:31;100062.56;;;14.77;63.65
44934;BME280;30667;43.614;1.442;2023-04-07T11:32:01;100052.47;;;14.77;65.31
44934;BME280;30667;43.614;1.442;2023-04-07T11:34:35;100049.41;;;14.93;63.82
44934;BME280;30667;43.614;1.442;2023-04-07T11:37:23;100047.31;;;14.76;64.47
44934;BME280;30667;43.614;1.442;2023-04-07T11:39:54;100048.31;;;14.80;72.29
44934;BME280;30667;43.614;1.442;2023-04-07T11:42:37;100050.22;;;15.30;61.26
44934;BME280;30667;43.614;1.442;2023-04-07T11:45:03;100029.22;;;15.30;62.76
44934;BME280;30667;43.614;1.442;2023-04-07T11:47:37;100035.56;;;15.03;76.23
44934;BME280;30667;43.614;1.442;2023-04-07T11:50:03;100035.38;;;14.99;71.54
44934;BME280;30667;43.614;1.442;2023-04-07T11:52:46;100028.59;;;15.33;64.46
44934;BME280;30667;43.614;1.442;2023-04-07T11:55:21;100027.38;;;15.62;60.31
44934;BME280;30667;43.614;1.442;2023-04-07T11:57:49;100030.91;;;15.40;61.31
44934;BME280;30667;43.614;1.442;2023-04-07T12:00:16;100036.41;;;15.49;60.91
44934;BME280;30667;43.614;1.442;2023-04-07T12:02:43;100024.22;;;15.46;61.36
44934;BME280;30667;43.614;1.442;2023-04-07T12:05:08;100025.56;;;15.57;60.37
44934;BME280;30667;43.614;1.442;2023-04-07T12:07:35;100018.50;;;15.34;68.97
44934;BME280;30667;43.614;1.442;2023-04-07T12:12:45;100018.47;;;15.48;59.47
44934;BME280;30667;43.614;1.442;2023-04-07T12:15:11;100012.78;;;15.21;60.41
44934;BME280;30667;43.614;1.442;2023-04-07T12:17:37;100002.81;;;15.17;61.17
44934;BME280;30667;43.614;1.442;2023-04-07T12:20:03;100008.34;;;15.48;57.99
44934;BME280;30667;43.614;1.442;2023-04-07T12:22:28;99997.50;;;15.79;54.97
44934;BME280;30667;43.614;1.442;2023-04-07T12:24:54;100002.69;;;15.90;54.04
44934;BME280;30667;43.614;1.442;2023-04-07T12:27:19;99998.72;;;16.05;54.62
44934;BME280;30667;43.614;1.442;2023-04-07T12:29:45;99991.81;;;15.76;55.55
44934;BME280;30667;43.614;1.442;2023-04-07T12:32:10;99989.19;;;15.85;57.91
44934;BME280;30667;43.614;1.442;2023-04-07T12:34:36;99989.34;;;15.88;58.09
44934;BME280;30667;43.614;1.442;2023-04-07T12:37:02;99996.13;;;16.00;58.71
44934;BME280;30667;43.614;1.442;2023-04-07T12:39:27;99980.31;;;15.79;57.14
44934;BME280;30667;43.614;1.442;2023-04-07T12:41:52;99989.44;;;16.06;57.70
44934;BME280;30667;43.614;1.442;2023-04-07T12:44:18;99970.59;;;15.95;59.08
44934;BME280;30667;43.614;1.442;2023-04-07T12:46:43;99963.47;;;15.86;58.56
44934;BME280;30667;43.614;1.442;2023-04-07T12:49:09;99966.25;;;15.94;60.36
44934;BME280;30667;43.614;1.442;2023-04-07T12:51:35;99959.31;;;15.57;70.36
44934;BME280;30667;43.614;1.442;2023-04-07T12:54:01;99959.63;;;15.78;62.29
44934;BME280;30667;43.614;1.442;2023-04-07T12:56:27;99956.34;;;16.07;59.67
44934;BME280;30667;43.614;1.442;2023-04-07T12:58:53;99949.72;;;15.91;62.56
44934;BME280;30667;43.614;1.442;2023-04-07T13:01:19;99948.00;;;16.04;58.48
44934;BME280;30667;43.614;1.442;2023-04-07T13:03:45;99943.06;;;15.52;67.70
44934;BME280;30667;43.614;1.442;2023-04-07T13:06:11;99952.56;;;15.54;66.54
44934;BME280;30667;43.614;1.442;2023-04-07T13:08:37;99949.47;;;16.10;60.56